createdAt,value
2022-07-31T00:00:24.243Z,0.70
2022-07-31T00:02:52.274Z,0.60
2022-07-31T00:05:20.258Z,0.75
2022-07-31T00:07:49.587Z,0.52
2022-07-31T00:10:17.601Z,0.70
2022-07-31T00:12:46.900Z,0.60
2022-07-31T00:15:14.892Z,0.50
2022-07-31T00:17:43.518Z,0.85
2022-07-31T00:20:14.149Z,0.60
2022-07-31T00:22:42.173Z,0.40
2022-07-31T00:25:11.943Z,0.40
2022-07-31T00:27:40.106Z,0.52
2022-07-31T00:30:08.707Z,0.40
2022-07-31T00:32:36.874Z,0.50
2022-07-31T00:35:05.419Z,0.70
2022-07-31T00:37:33.778Z,0.60
2022-07-31T00:40:01.712Z,1.10
2022-07-31T00:42:31.131Z,0.43
2022-07-31T00:44:59.164Z,0.40
2022-07-31T00:47:27.307Z,0.50
2022-07-31T00:49:55.352Z,0.40
2022-07-31T00:52:23.396Z,0.40
2022-07-31T00:54:51.350Z,0.40
2022-07-31T00:57:19.371Z,0.60
2022-07-31T00:59:48.735Z,0.60
2022-07-31T01:02:16.737Z,0.55
2022-07-31T01:04:44.682Z,0.40
2022-07-31T01:07:13.947Z,0.60
2022-07-31T01:09:42.596Z,0.40
2022-07-31T01:12:14.222Z,0.47
2022-07-31T01:14:51.148Z,0.40
2022-07-31T01:17:19.123Z,0.57
2022-07-31T01:19:47.417Z,0.50
2022-07-31T01:22:34.932Z,0.40
2022-07-31T01:25:08.283Z,0.52
2022-07-31T01:27:49.214Z,0.38
2022-07-31T01:30:19.408Z,0.40
2022-07-31T01:32:49.511Z,0.57
2022-07-31T01:35:19.052Z,0.63
2022-07-31T01:37:48.622Z,0.95
2022-07-31T01:40:17.609Z,0.40
2022-07-31T01:42:45.913Z,0.50
2022-07-31T01:45:14.615Z,0.52
2022-07-31T01:47:43.958Z,0.88
2022-07-31T01:50:43.333Z,0.85
2022-07-31T01:53:00.970Z,0.20
2022-07-31T01:55:28.930Z,0.60
2022-07-31T01:57:57.055Z,0.55
2022-07-31T02:00:34.517Z,0.50
2022-07-31T02:03:09.779Z,0.30
2022-07-31T02:05:37.932Z,0.80
2022-07-31T02:08:06.571Z,0.57
2022-07-31T02:10:34.520Z,0.50
2022-07-31T02:13:02.854Z,0.30
2022-07-31T02:15:30.878Z,0.55
2022-07-31T02:17:58.829Z,0.40
2022-07-31T02:20:28.302Z,0.25
2022-07-31T02:22:56.303Z,0.40
2022-07-31T02:25:24.442Z,0.30
2022-07-31T02:27:58.305Z,0.30
2022-07-31T02:30:27.752Z,0.50
2022-07-31T02:33:08.900Z,0.40
2022-07-31T02:35:38.894Z,0.30
2022-07-31T02:38:22.993Z,0.30
2022-07-31T02:40:51.833Z,0.32
2022-07-31T02:43:20.127Z,0.30
2022-07-31T02:45:48.371Z,0.70
2022-07-31T02:48:16.451Z,0.50
2022-07-31T02:50:46.077Z,0.30
2022-07-31T02:53:14.280Z,0.25
2022-07-31T02:55:42.377Z,0.32
2022-07-31T02:58:10.592Z,0.40
2022-07-31T03:00:38.629Z,0.25
2022-07-31T03:03:06.787Z,0.40
2022-07-31T03:05:34.931Z,0.20
2022-07-31T03:08:04.487Z,0.40
2022-07-31T03:10:32.597Z,0.20
2022-07-31T03:13:00.724Z,0.30
2022-07-31T03:15:29.035Z,0.30
2022-07-31T03:17:56.969Z,0.52
2022-07-31T03:20:26.051Z,0.28
2022-07-31T03:22:54.022Z,0.50
2022-07-31T03:25:23.333Z,0.40
2022-07-31T03:27:52.331Z,0.38
2022-07-31T03:30:25.198Z,0.30
2022-07-31T03:32:53.389Z,0.25
2022-07-31T03:35:21.343Z,0.50
2022-07-31T03:37:49.615Z,0.30
2022-07-31T03:40:17.599Z,0.38
2022-07-31T03:42:46.972Z,0.40
2022-07-31T03:45:15.170Z,0.40
2022-07-31T03:47:43.123Z,0.30
2022-07-31T03:50:11.164Z,0.20
2022-07-31T03:52:39.111Z,0.20
2022-07-31T03:55:08.227Z,0.32
2022-07-31T03:57:36.280Z,0.20
2022-07-31T04:00:12.363Z,0.20
2022-07-31T04:02:44.705Z,0.30
2022-07-31T04:05:12.732Z,0.32
2022-07-31T04:07:40.694Z,0.20
2022-07-31T04:10:09.721Z,0.40
2022-07-31T04:12:37.844Z,0.30
2022-07-31T04:15:08.249Z,0.35
2022-07-31T04:17:37.359Z,0.40
2022-07-31T04:20:06.172Z,0.20
2022-07-31T04:22:34.128Z,0.20
2022-07-31T04:25:03.496Z,0.20
2022-07-31T04:27:31.417Z,0.38
2022-07-31T04:29:59.424Z,0.32
2022-07-31T04:32:29.060Z,0.20
2022-07-31T04:34:57.037Z,0.52
2022-07-31T04:37:24.992Z,0.40
2022-07-31T04:39:52.920Z,0.32
2022-07-31T04:42:20.846Z,0.47
2022-07-31T04:44:49.064Z,0.30
2022-07-31T04:47:16.999Z,0.17
2022-07-31T04:49:46.372Z,0.40
2022-07-31T04:52:14.325Z,0.30
2022-07-31T04:54:42.286Z,0.43
2022-07-31T04:57:10.269Z,0.30
2022-07-31T05:00:00.678Z,0.30
2022-07-31T05:02:26.294Z,0.38
2022-07-31T05:04:56.657Z,0.30
2022-07-31T05:07:26.553Z,0.22
2022-07-31T05:09:57.087Z,0.30
2022-07-31T05:12:25.113Z,0.32
2022-07-31T05:14:54.508Z,0.50
2022-07-31T05:17:22.488Z,0.30
2022-07-31T05:19:50.454Z,0.30
2022-07-31T05:22:19.833Z,0.25
2022-07-31T05:24:47.792Z,0.20
2022-07-31T05:27:15.798Z,0.30
2022-07-31T05:29:43.789Z,0.10
2022-07-31T05:32:12.220Z,0.38
2022-07-31T05:34:40.412Z,0.47
2022-07-31T05:37:08.629Z,0.25
2022-07-31T05:39:37.967Z,0.20
2022-07-31T05:42:06.772Z,0.40
2022-07-31T05:44:35.067Z,0.40
2022-07-31T05:47:03.056Z,0.38
2022-07-31T05:49:31.090Z,0.32
2022-07-31T05:51:59.102Z,0.10
2022-07-31T05:54:27.041Z,0.22
2022-07-31T05:56:56.449Z,0.30
2022-07-31T05:59:24.775Z,0.20
2022-07-31T06:01:52.793Z,0.32
2022-07-31T06:04:20.860Z,0.20
2022-07-31T06:06:48.782Z,0.30
2022-07-31T06:09:16.829Z,0.30
2022-07-31T06:11:44.876Z,0.38
2022-07-31T06:14:14.293Z,0.75
2022-07-31T06:16:42.245Z,0.43
2022-07-31T06:19:10.212Z,0.40
2022-07-31T06:21:38.159Z,0.40
2022-07-31T06:24:06.947Z,0.30
2022-07-31T06:26:36.968Z,0.50
2022-07-31T06:29:05.199Z,0.30
2022-07-31T06:31:34.599Z,0.30
2022-07-31T06:34:02.542Z,0.32
2022-07-31T06:36:30.532Z,0.20
2022-07-31T06:38:58.535Z,0.30
2022-07-31T06:41:43.975Z,0.55
2022-07-31T06:44:11.973Z,0.20
2022-07-31T06:46:49.278Z,0.47
2022-07-31T06:49:17.720Z,0.55
2022-07-31T06:51:45.716Z,0.45
2022-07-31T06:54:13.708Z,0.20
2022-07-31T06:56:41.713Z,0.40
2022-07-31T06:59:09.686Z,0.30
2022-07-31T07:01:37.710Z,0.73
2022-07-31T07:04:07.214Z,1.20
2022-07-31T07:06:35.590Z,1.02
2022-07-31T07:09:03.587Z,0.35
2022-07-31T07:11:31.568Z,0.32
2022-07-31T07:13:59.560Z,0.20
2022-07-31T07:16:27.500Z,0.20
2022-07-31T07:18:55.953Z,0.20
2022-07-31T07:21:25.628Z,0.52
2022-07-31T07:23:53.628Z,0.55
2022-07-31T07:26:21.613Z,0.30
2022-07-31T07:28:49.571Z,0.43
2022-07-31T07:31:17.583Z,0.40
2022-07-31T07:33:45.828Z,0.28
2022-07-31T07:36:23.223Z,0.30
2022-07-31T07:38:55.132Z,0.38
2022-07-31T07:41:24.065Z,0.20
2022-07-31T07:43:52.701Z,0.20
2022-07-31T07:46:21.788Z,0.30
2022-07-31T07:48:51.110Z,0.50
2022-07-31T07:51:19.527Z,0.20
2022-07-31T07:53:47.763Z,0.40
2022-07-31T07:56:17.165Z,0.38
2022-07-31T07:58:45.208Z,0.30
2022-07-31T08:01:13.464Z,0.20
2022-07-31T08:03:50.902Z,0.30
2022-07-31T08:06:20.913Z,0.45
2022-07-31T08:08:48.955Z,0.30
2022-07-31T08:11:18.319Z,0.68
2022-07-31T08:13:51.225Z,0.30
2022-07-31T08:16:20.320Z,0.52
2022-07-31T08:18:48.437Z,0.30
2022-07-31T08:21:16.390Z,0.20
2022-07-31T08:23:44.393Z,0.30
2022-07-31T08:26:13.122Z,0.47
2022-07-31T08:28:49.981Z,0.43
2022-07-31T08:31:19.317Z,0.60
2022-07-31T08:33:47.528Z,0.28
2022-07-31T08:36:15.487Z,0.43
2022-07-31T08:38:43.468Z,0.40
2022-07-31T08:41:13.162Z,0.30
2022-07-31T08:44:01.994Z,0.30
2022-07-31T08:46:31.249Z,0.30
2022-07-31T08:48:59.344Z,0.40
2022-07-31T08:51:27.431Z,0.50
2022-07-31T08:53:57.285Z,0.20
2022-07-31T08:56:25.749Z,0.40
2022-07-31T08:58:53.752Z,0.45
2022-07-31T09:01:21.779Z,0.43
2022-07-31T09:03:51.234Z,0.20
2022-07-31T09:06:19.210Z,0.10
2022-07-31T09:08:47.254Z,0.60
2022-07-31T09:11:15.798Z,0.40
2022-07-31T09:14:02.213Z,0.38
2022-07-31T09:16:31.542Z,0.30
2022-07-31T09:19:01.701Z,0.25
2022-07-31T09:21:39.757Z,0.52
2022-07-31T09:24:10.211Z,0.50
2022-07-31T09:26:40.886Z,0.20
2022-07-31T09:29:11.916Z,0.30
2022-07-31T09:31:40.150Z,0.20
2022-07-31T09:34:09.535Z,0.20
2022-07-31T09:36:37.554Z,0.32
2022-07-31T09:39:14.355Z,0.30
2022-07-31T09:42:01.322Z,0.30
2022-07-31T09:44:42.543Z,0.20
2022-07-31T09:47:21.895Z,0.30
2022-07-31T09:49:55.705Z,0.57
2022-07-31T09:52:24.219Z,0.28
2022-07-31T09:55:01.784Z,0.20
2022-07-31T09:57:29.785Z,0.32
2022-07-31T09:59:57.824Z,0.40
2022-07-31T10:02:26.663Z,0.28
2022-07-31T10:04:58.964Z,0.32
2022-07-31T10:07:32.717Z,0.30
2022-07-31T10:10:00.894Z,0.32
2022-07-31T10:12:30.764Z,0.32
2022-07-31T10:15:03.785Z,0.43
2022-07-31T10:17:35.964Z,0.20
2022-07-31T10:20:07.475Z,0.40
2022-07-31T10:22:37.121Z,0.20
2022-07-31T10:25:05.354Z,0.38
2022-07-31T10:27:33.347Z,0.20
2022-07-31T10:30:08.520Z,0.28
2022-07-31T10:32:36.487Z,0.20
2022-07-31T10:35:07.528Z,0.32
2022-07-31T10:37:37.965Z,0.28
2022-07-31T10:40:10.173Z,0.80
2022-07-31T10:42:42.586Z,0.20
2022-07-31T10:45:11.415Z,0.30
2022-07-31T10:47:39.400Z,0.30
2022-07-31T10:50:23.672Z,0.30
2022-07-31T10:52:51.628Z,0.47
2022-07-31T10:55:22.250Z,0.30
2022-07-31T10:57:56.348Z,0.30
2022-07-31T11:00:29.748Z,0.30
2022-07-31T11:02:58.239Z,0.32
2022-07-31T11:05:28.175Z,0.30
2022-07-31T11:08:01.569Z,0.20
2022-07-31T11:10:29.592Z,0.20
2022-07-31T11:13:01.106Z,0.30
2022-07-31T11:15:30.100Z,0.20
2022-07-31T11:18:21.040Z,0.20
2022-07-31T11:20:48.091Z,0.50
2022-07-31T11:23:16.862Z,0.30
2022-07-31T11:25:46.147Z,0.40
2022-07-31T11:28:16.084Z,0.40
2022-07-31T11:30:51.245Z,0.30
2022-07-31T11:33:30.137Z,0.30
2022-07-31T11:36:12.347Z,0.30
2022-07-31T11:38:40.649Z,0.30
2022-07-31T11:41:09.612Z,0.43
2022-07-31T11:43:39.631Z,0.40
2022-07-31T11:46:07.625Z,0.30
2022-07-31T11:48:43.527Z,0.30
2022-07-31T11:51:19.633Z,0.40
2022-07-31T11:56:26.368Z,0.30
2022-07-31T11:58:54.979Z,0.32
2022-07-31T12:01:25.742Z,0.17
2022-07-31T12:03:53.713Z,0.57
2022-07-31T12:06:23.304Z,0.30
2022-07-31T12:08:53.122Z,0.30
2022-07-31T12:11:21.212Z,0.40
2022-07-31T12:13:49.255Z,0.40
2022-07-31T12:16:18.658Z,0.35
2022-07-31T12:18:47.965Z,0.25
2022-07-31T12:21:16.072Z,0.32
2022-07-31T12:23:46.717Z,0.40
2022-07-31T12:26:22.484Z,0.30
2022-07-31T12:28:58.324Z,0.30
2022-07-31T12:31:26.340Z,0.30
2022-07-31T12:33:54.476Z,0.28
2022-07-31T12:36:22.744Z,0.65
2022-07-31T12:39:01.036Z,0.35
2022-07-31T12:41:29.276Z,0.30
2022-07-31T12:43:57.250Z,0.63
2022-07-31T12:46:36.776Z,0.30
2022-07-31T12:49:05.087Z,0.55
2022-07-31T12:51:46.313Z,0.28
2022-07-31T12:54:16.352Z,0.65
2022-07-31T12:56:44.932Z,0.47
2022-07-31T12:59:12.911Z,0.55
2022-07-31T13:01:41.016Z,0.30
2022-07-31T13:04:18.700Z,0.40
2022-07-31T13:06:48.652Z,0.38
2022-07-31T13:09:18.227Z,0.30
2022-07-31T13:11:48.641Z,0.57
2022-07-31T13:14:17.549Z,0.35
2022-07-31T13:16:45.810Z,0.30
2022-07-31T13:19:14.085Z,0.30
2022-07-31T13:21:49.184Z,0.45
2022-07-31T13:24:19.585Z,0.30
2022-07-31T13:26:47.836Z,0.57
2022-07-31T13:29:15.814Z,0.30
2022-07-31T13:31:43.803Z,0.30
2022-07-31T13:34:11.911Z,0.28
2022-07-31T13:36:40.136Z,0.25
2022-07-31T13:39:08.282Z,0.40
2022-07-31T13:41:39.199Z,0.55
2022-07-31T13:44:07.695Z,0.50
2022-07-31T13:46:35.757Z,0.30
2022-07-31T13:49:08.306Z,0.30
2022-07-31T13:51:36.789Z,0.60
2022-07-31T13:54:04.901Z,0.38
2022-07-31T13:56:39.478Z,0.47
2022-07-31T13:59:13.008Z,0.40
2022-07-31T14:02:04.652Z,0.30
2022-07-31T14:04:32.962Z,0.38
2022-07-31T14:07:07.389Z,0.43
2022-07-31T14:09:36.037Z,0.63
2022-07-31T14:12:04.957Z,0.25
2022-07-31T14:14:35.090Z,0.43
2022-07-31T14:17:03.046Z,0.30
2022-07-31T14:19:44.103Z,0.40
2022-07-31T14:22:13.228Z,0.75
2022-07-31T14:24:41.483Z,0.40
2022-07-31T14:27:17.264Z,0.20
2022-07-31T14:29:46.749Z,0.30
2022-07-31T14:32:14.721Z,0.40
2022-07-31T14:34:42.684Z,0.40
2022-07-31T14:37:10.646Z,0.20
2022-07-31T14:39:42.630Z,0.20
2022-07-31T14:42:11.229Z,0.47
2022-07-31T14:44:41.859Z,0.50
2022-07-31T14:47:11.631Z,0.40
2022-07-31T14:50:07.017Z,0.45
2022-07-31T14:52:27.708Z,0.38
2022-07-31T14:54:55.833Z,0.30
2022-07-31T14:57:23.851Z,0.20
2022-07-31T14:59:52.186Z,0.32
2022-07-31T15:02:22.715Z,0.73
2022-07-31T15:04:51.038Z,0.50
2022-07-31T15:07:36.670Z,0.22
2022-07-31T15:10:07.742Z,0.30
2022-07-31T15:12:35.770Z,0.63
2022-07-31T15:15:03.995Z,0.20
2022-07-31T15:17:33.365Z,0.30
2022-07-31T15:20:01.300Z,0.60
2022-07-31T15:22:29.298Z,0.30
2022-07-31T15:24:57.215Z,0.30
2022-07-31T15:27:25.751Z,0.22
2022-07-31T15:30:04.406Z,0.20
2022-07-31T15:32:37.004Z,0.25
2022-07-31T15:35:05.481Z,0.30
2022-07-31T15:37:35.226Z,0.30
2022-07-31T15:40:04.850Z,0.20
2022-07-31T15:42:32.949Z,0.30
2022-07-31T15:45:00.926Z,0.20
2022-07-31T15:47:28.905Z,0.20
2022-07-31T15:49:58.216Z,0.40
2022-07-31T15:52:26.358Z,0.15
2022-07-31T15:54:54.399Z,0.20
2022-07-31T15:57:22.446Z,0.20
2022-07-31T15:59:50.477Z,0.30
2022-07-31T16:02:18.421Z,0.20
2022-07-31T16:04:53.393Z,0.68
2022-07-31T16:08:30.189Z,0.20
2022-07-31T16:10:16.169Z,0.45
2022-07-31T16:12:45.395Z,0.30
2022-07-31T16:15:13.627Z,0.17
2022-07-31T16:17:41.697Z,0.20
2022-07-31T16:20:11.133Z,0.57
2022-07-31T16:22:41.307Z,0.40
2022-07-31T16:25:09.862Z,0.30
2022-07-31T16:27:38.070Z,0.30
2022-07-31T16:30:06.819Z,0.40
2022-07-31T16:32:34.885Z,0.22
2022-07-31T16:35:02.931Z,0.20
2022-07-31T16:37:51.487Z,0.52
2022-07-31T16:40:29.131Z,0.40
2022-07-31T16:43:00.868Z,0.90
2022-07-31T16:45:29.321Z,0.65
2022-07-31T16:47:57.337Z,0.43
2022-07-31T16:50:25.498Z,0.47
2022-07-31T16:52:55.019Z,0.28
2022-07-31T16:55:51.775Z,0.30
2022-07-31T16:58:13.923Z,0.20
2022-07-31T17:00:41.988Z,0.50
2022-07-31T17:03:59.565Z,0.20
2022-07-31T17:05:58.067Z,0.50
2022-07-31T17:08:26.090Z,0.32
2022-07-31T17:10:55.477Z,0.20
2022-07-31T17:13:23.719Z,0.25
2022-07-31T17:15:51.751Z,0.50
2022-07-31T17:18:24.930Z,0.32
2022-07-31T17:20:55.685Z,0.30
2022-07-31T17:23:42.767Z,0.30
2022-07-31T17:26:20.784Z,0.40
2022-07-31T17:28:49.668Z,0.20
2022-07-31T17:31:17.646Z,0.30
2022-07-31T17:33:49.597Z,0.20
2022-07-31T17:36:28.054Z,0.43
2022-07-31T17:38:56.042Z,0.40
2022-07-31T17:41:26.009Z,0.30
2022-07-31T17:43:54.557Z,0.30
2022-07-31T17:47:07.314Z,0.20
2022-07-31T17:49:11.683Z,0.40
2022-07-31T17:51:58.759Z,0.13
2022-07-31T17:54:28.154Z,0.28
2022-07-31T17:56:57.547Z,0.30
2022-07-31T17:59:25.752Z,0.22
2022-07-31T18:01:59.756Z,0.28
2022-07-31T18:04:28.003Z,0.40
2022-07-31T18:06:56.036Z,0.20
2022-07-31T18:09:24.207Z,0.20
2022-07-31T18:11:52.289Z,0.52
2022-07-31T18:14:24.260Z,0.30
2022-07-31T18:16:52.824Z,0.30
2022-07-31T18:19:21.659Z,0.20
2022-07-31T18:21:49.748Z,0.30
2022-07-31T18:24:17.762Z,0.20
2022-07-31T18:26:45.850Z,0.50
2022-07-31T18:29:13.784Z,0.30
2022-07-31T18:31:43.148Z,0.20
2022-07-31T18:34:11.384Z,0.10
2022-07-31T18:36:40.232Z,0.40
2022-07-31T18:39:08.427Z,0.38
2022-07-31T18:41:37.315Z,0.40
2022-07-31T18:44:05.665Z,0.20
2022-07-31T18:46:33.604Z,0.60
2022-07-31T18:49:03.011Z,0.30
2022-07-31T18:51:31.099Z,0.28
2022-07-31T18:53:59.113Z,0.30
2022-07-31T18:56:27.362Z,0.30
2022-07-31T18:58:55.449Z,0.20
2022-07-31T19:01:25.561Z,0.40
2022-07-31T19:03:53.846Z,0.30
2022-07-31T19:06:23.803Z,0.45
2022-07-31T19:08:52.174Z,0.20
2022-07-31T19:11:20.301Z,0.43
2022-07-31T19:13:48.281Z,0.20
2022-07-31T19:16:17.644Z,0.20
2022-07-31T19:18:45.901Z,0.45
2022-07-31T19:21:41.511Z,0.57
2022-07-31T19:24:09.503Z,0.30
2022-07-31T19:26:37.756Z,0.20
2022-07-31T19:29:05.937Z,0.30
2022-07-31T19:31:34.056Z,0.57
2022-07-31T19:34:01.984Z,0.30
2022-07-31T19:36:30.017Z,0.30
2022-07-31T19:38:58.005Z,0.30
2022-07-31T19:41:27.385Z,0.50
2022-07-31T19:43:55.374Z,0.40
2022-07-31T19:46:23.308Z,0.63
2022-07-31T19:48:51.333Z,0.30
2022-07-31T19:51:19.384Z,0.47
2022-07-31T19:53:47.341Z,0.20
2022-07-31T19:56:20.430Z,0.40
2022-07-31T19:58:50.538Z,0.63
2022-07-31T20:01:20.039Z,0.88
2022-07-31T20:03:48.297Z,0.40
2022-07-31T20:06:16.362Z,0.35
2022-07-31T20:08:44.379Z,0.50
2022-07-31T20:11:12.448Z,0.40
2022-07-31T20:13:40.409Z,0.50
2022-07-31T20:16:09.779Z,0.55
2022-07-31T20:18:37.731Z,0.57
2022-07-31T20:21:07.239Z,0.40
2022-07-31T20:23:38.177Z,0.40
2022-07-31T20:26:06.426Z,0.50
2022-07-31T20:28:34.603Z,0.80
2022-07-31T20:31:02.663Z,0.60
2022-07-31T20:33:32.007Z,0.57
2022-07-31T20:35:59.981Z,0.40
2022-07-31T20:38:27.990Z,0.52
2022-07-31T20:40:56.226Z,0.85
2022-07-31T20:43:24.597Z,0.80
2022-07-31T20:45:52.576Z,1.05
2022-07-31T20:48:22.021Z,0.50
2022-07-31T20:50:51.407Z,0.50
2022-07-31T20:53:19.550Z,0.70
2022-07-31T20:55:49.856Z,0.50
2022-07-31T20:58:18.105Z,0.70
2022-07-31T21:00:47.520Z,0.68
2022-07-31T21:03:15.890Z,0.63
2022-07-31T21:05:43.969Z,0.50
2022-07-31T21:08:13.422Z,0.70
2022-07-31T21:10:41.451Z,0.77
2022-07-31T21:13:09.468Z,0.80
2022-07-31T21:15:42.058Z,0.85
2022-07-31T21:18:13.294Z,0.88
2022-07-31T21:20:50.951Z,0.82
2022-07-31T21:23:22.950Z,0.80
2022-07-31T21:25:51.334Z,0.70
2022-07-31T21:28:19.695Z,0.90
2022-07-31T21:30:48.078Z,0.75
2022-07-31T21:33:16.231Z,0.80
2022-07-31T21:35:44.991Z,0.80
2022-07-31T21:38:15.249Z,0.65
2022-07-31T21:40:44.837Z,0.70
2022-07-31T21:43:16.909Z,0.98
2022-07-31T21:45:55.558Z,0.73
2022-07-31T21:48:26.320Z,0.75
2022-07-31T21:50:54.457Z,0.85
2022-07-31T21:53:22.557Z,0.90
2022-07-31T21:55:51.902Z,0.60
2022-07-31T21:58:19.963Z,0.90
2022-07-31T22:00:48.013Z,0.90
2022-07-31T22:03:16.100Z,1.30
2022-07-31T22:06:01.270Z,0.85
2022-07-31T22:08:29.295Z,0.90
2022-07-31T22:10:58.683Z,0.63
2022-07-31T22:13:26.704Z,0.75
2022-07-31T22:16:00.058Z,1.30
2022-07-31T22:18:29.163Z,0.90
2022-07-31T22:20:57.725Z,0.85
2022-07-31T22:23:25.876Z,1.38
2022-07-31T22:25:54.258Z,1.08
2022-07-31T22:28:24.049Z,0.95
2022-07-31T22:30:52.138Z,1.10
2022-07-31T22:33:20.298Z,0.70
2022-07-31T22:35:58.616Z,1.08
2022-07-31T22:38:28.669Z,1.08
2022-07-31T22:40:56.702Z,0.85
2022-07-31T22:44:14.093Z,1.00
2022-07-31T22:46:14.326Z,1.13
2022-07-31T22:48:42.426Z,1.75
2022-07-31T22:51:12.908Z,0.68
2022-07-31T22:53:43.299Z,1.02
2022-07-31T22:56:11.344Z,1.00
2022-07-31T22:58:40.781Z,1.02
2022-07-31T23:01:08.799Z,1.10
2022-07-31T23:03:36.808Z,1.40
2022-07-31T23:06:31.249Z,1.48
2022-07-31T23:08:54.698Z,0.82
2022-07-31T23:11:23.508Z,1.48
2022-07-31T23:13:52.947Z,1.05
2022-07-31T23:16:21.329Z,0.80
2022-07-31T23:18:49.397Z,0.95
2022-07-31T23:21:17.426Z,1.00
2022-07-31T23:23:48.710Z,0.80
2022-07-31T23:26:18.064Z,0.50
2022-07-31T23:28:46.061Z,0.80
2022-07-31T23:31:15.455Z,0.65
2022-07-31T23:33:43.488Z,0.80
2022-07-31T23:36:11.522Z,0.63
2022-07-31T23:38:39.500Z,0.93
2022-07-31T23:41:07.476Z,1.00
2022-07-31T23:43:34.432Z,1.13
2022-07-31T23:46:02.431Z,0.88
2022-07-31T23:48:31.824Z,1.13
2022-07-31T23:50:59.896Z,0.95
2022-07-31T23:53:27.872Z,0.90
2022-07-31T23:55:55.859Z,0.77
2022-07-31T23:58:23.906Z,1.00
